Relevés horaires Matro (Suisse)


Relevés horaires à Matro - Mercredi 19 Janv. 2022
Heure UTC1 Température [°C] Vent [km/h] Hum. [%] Pres.4 [hPa] Visi. [Km] Nébu. [octa] Préc.5 [mm] Cond.
2m. Res. Ros. Dir.2 Vit. Moy. Raf.3
23:00 -6.3 -6.3 -11.7 S 1.9 -- 18.5 65 850(-0.9/3h) -- -- -- --
22:00 -5.9 -11.6 -12.1 SSE 14.8 -- 20.4 61 850(-1.0/3h) -- -- -- --
21:00 -5.6 -11.7 -11.3 SSE 16.7 -- 25.9 64 850(-1.3/3h) -- -- -- --
20:00 -5.5 -12.8 -11.8 SSE 24.1 -- 25.9 61 850(-1.1/3h) -- -- -- --
19:00 -5.3 -12 -12.7 SSE 20.4 -- 24.1 56 850(-1.2/3h) -- -- -- --
18:00 -4.9 -11.2 -12.1 SSE 18.5 -- 25.9 57 850(-1.2/3h) -- -- -- --
17:00 -4.4 -10.9 -13.1 SSE 20.4 -- 24.1 51 850(-1.4/3h) -- -- -- --
16:00 -3.9 -9.6 -11.8 SSE 16.7 -- 18.5 54 850(-1.8/3h) -- -- -- --
15:00 -2.2 -5.1 -10.6 SE 7.4 -- 22.2 52 850(-2.1/3h) -- -- -- --
14:00 -1.4 -5.7 -10.2 SSE 13.0 -- 22.2 51 850(-2.5/3h) -- -- -- --
13:00 -1.8 -6.2 -9.7 SSE 13.0 -- 22.2 55 850(-2.5/3h) -- -- -- --
12:00 -1.5 -4.9 -8.8 SSE 9.3 -- 16.7 57 850(-1.6/3h) -- -- -- --
11:00 -1.5 -4.3 -9.4 SE 7.4 -- 14.8 55 850(-0.7/3h) -- -- -- --
10:00 -1.9 -1.9 -9.2 SE 3.7 -- 11.1 57 850(-0.2/3h) -- -- -- --
09:00 -2.6 -6.2 -10.1 SE 9.3 -- 13.0 56 850(-0.5/3h) -- -- -- --
08:00 -2.7 -6.3 -10.0 SE 9.3 -- 11.1 57 850(-0.8/3h) -- -- -- --
07:00 -2.5 -6.6 -10.5 SE 11.1 -- 13.0 54 850(-0.9/3h) -- -- -- --
06:00 -2.5 -7.1 -9.8 SE 13.0 -- 22.2 57 850(-0.9/3h) -- -- -- --
05:00 -2.6 -8 -10.3 SE 16.7 -- 18.5 55 850(-1.3/3h) -- -- -- --
04:00 -2.8 -7.8 -10.6 SE 14.8 -- 18.5 55 850(-1.3/3h) -- -- -- --
03:00 -2.6 -7.6 -10.8 S 14.8 -- 22.2 53 850(-1.2/3h) -- -- -- --
02:00 -1.6 -4.4 -11.0 SE 7.4 -- 9.3 49 850(-0.5/3h) -- -- -- --
01:00 -2.3 -2.3 -10.6 SE 3.7 -- 11.1 53 850(-0.6/3h) -- -- -- --
00:00 -2.0 -4.9 -10.8 SE 7.4 -- 9.3 51 850(-0.7/3h) -- -- -- --

1 Coordinated Universal Time. Actuellement il est 03:00 locale et 01:00 UTC.

2 Le vent souffle depuis la direction indiquée vers la direction oposée.

3 Les rafales max. sont disponible 40 min après l'heure du relevé.

4 Pour les stations d'altitude (plus de 600m) le géopotentiel du niveau le plus proche de la pression obligatoire est indiqué.

5 Les stations disposant d'un diffuseur peuvent indiquer "trace". Cela signifie que des précipitations ont touchés le sol mais que la quantité est inférieure à 0.1 mm.

Copyright

Les données affichées sur cette page sont la propriété exclusive de Météo Suisse.

Récapitulatif de la journée
Température [°C] Vent [km/h] Ensoleillement4 [h] Precipitations totale5 [mm] Pression [Hpa]
Min1 Max.2 Moy.3 Max. Min Max.
-3.0 -0.6 0 25.9 8 h 12 min 0 850.0 850.0

1 Température minimale relevée entre 18:00 UTC la veille et 18:00 UTC le jour donné.

2 Température maximale relevée entre 06:00 UTC le jour donné et 06:00 UTC le lendemain.

3 Vent moyen de la journée basé sur les relevés horaires.

4 Ensoleillement en heures relevé entre 06:00 UTC la veille et 06:00 UTC le jour donné.

5 Précipitations totales tombées entre 06:00 UTC la jour donné et 06:00 UTC le lendemain.

Graphiques horaires